Huvudsida
METAR-TAF:

METAR-TAF

Flygplatser :

Stockholm-Bromma flygplats

Stockholm, Sverige

latitud: 59-21N, longitud: 017-57E, höjd: 14 m

Aktuellt väderrapport

Denna rapport gjordes för 23 minuter sedan, klockan 18:50 UTC
Vind 6 kt från ost/sydost
Temperatur 11°C
Fuktighet 47%
Tryck 1027 hPa
Sikt 10 km eller mer

METAR: ESSB 201850Z AUTO 11006KT 9999 NCD 11/M00 Q1027

Tid: 21:13 (19:13 UTC)

Väderprognos

Denna rapport gjordes för 7 timmar och 43 minuter sedan, klockan 11:30 UTC
Prognos gäller från 20 kl. 12 UTC till 20 kl. 15 UTC
Vind 8 kt från väst/nordväst
Sikt 10 km eller mer
Inga moln under 1 500 m eller inga cumulonimbus

TAF: ESSB 201130Z 2012/2015 30008KT CAVOK

Aktuella väderrapporter och prognoser från 4000 flygplatser (METAR- och TAF-rapporter).

De tillgängliga stationerna syns som gula och röda prickar på kartan.

För musen över prickarna för att se namnen på stationerna.

Klicka sedan för att få väderrapporter och prognoser.

För att ändra kartan: Klicka på de gröna knapparna med ett svart kors på för att zooma in; den gröna knappen med ett streck på för att zooma ut; eller på de gröna pilarna för angränsande kartor.


METAR-TAF: